Time;durP1;ratioP1;P1;durP2;ratioP2;P2;SDS_P1;SDS_P2;PMS_P1;PMS_P2;Temp;Humidity;BMP_temperature;BMP_pressure;BME280_temperature;BME280_humidity;BME280_pressure;Samples;Min_cycle;Max_cycle;Signal;HPM_P1;HPM_P2
2023/10/16 00:01:13;;;;;;;17.80;12.00;;;;;;;11.21;100.00;99832.60;105730;1257;61966;-76
2023/10/16 00:03:43;;;;;;;16.40;10.50;;;;;;;11.18;100.00;99835.42;105851;1253;60373;-75
2023/10/16 00:06:16;;;;;;;14.70;11.00;;;;;;;11.15;100.00;99837.23;105723;1253;72612;-76
2023/10/16 00:08:53;;;;;;;18.80;12.00;;;;;;;11.13;100.00;99841.38;105634;1256;63914;-76
2023/10/16 00:11:24;;;;;;;20.10;13.30;;;;;;;11.11;100.00;99847.14;105706;1253;72715;-75
2023/10/16 00:13:52;;;;;;;14.80;11.10;;;;;;;11.09;100.00;99846.94;105874;1257;60556;-76
2023/10/16 00:16:21;;;;;;;12.80;10.10;;;;;;;11.07;100.00;99849.38;105616;1253;60496;-76
2023/10/16 00:18:50;;;;;;;15.90;9.60;;;;;;;11.06;100.00;99846.32;105920;1253;72491;-77
2023/10/16 00:21:17;;;;;;;18.50;10.80;;;;;;;11.05;100.00;99849.02;105670;1257;63738;-76
2023/10/16 00:23:45;;;;;;;14.70;9.90;;;;;;;11.03;100.00;99848.10;105764;1259;72566;-79
2023/10/16 00:26:21;;;;;;;16.80;10.00;;;;;;;11.02;100.00;99842.25;105659;1257;62163;-77
2023/10/16 00:31:42;;;;;;;14.70;9.70;;;;;;;11.00;100.00;99835.73;105744;1253;73853;-76
2023/10/16 00:34:10;;;;;;;19.50;9.00;;;;;;;10.99;100.00;99834.94;105778;1256;63974;-77
2023/10/16 00:36:37;;;;;;;13.00;8.50;;;;;;;10.97;100.00;99835.05;105883;1256;72663;-75
2023/10/16 00:39:13;;;;;;;14.60;9.60;;;;;;;10.97;100.00;99835.08;105685;1252;61872;-76
2023/10/16 00:41:44;;;;;;;15.20;9.80;;;;;;;10.95;100.00;99834.14;105718;1255;60467;-75
2023/10/16 00:44:11;;;;;;;13.70;9.50;;;;;;;10.93;100.00;99827.34;105699;1253;73834;-78
2023/10/16 00:46:39;;;;;;;12.70;9.70;;;;;;;10.89;100.00;99829.38;105673;1253;62488;-75
2023/10/16 00:49:06;;;;;;;14.60;9.00;;;;;;;10.86;100.00;99822.59;105659;1257;71398;-74
2023/10/16 00:51:34;;;;;;;11.30;8.30;;;;;;;10.84;100.00;99812.46;105824;1256;61013;-76
2023/10/16 00:54:18;;;;;;;18.80;9.10;;;;;;;10.81;100.00;99805.65;105708;1258;60366;-75
2023/10/16 00:56:46;;;;;;;17.00;9.30;;;;;;;10.80;100.00;99800.65;105840;1256;72755;-75
2023/10/16 00:59:16;;;;;;;11.50;8.40;;;;;;;10.78;100.00;99793.45;105764;1257;62422;-77
2023/10/16 01:01:44;;;;;;;12.70;8.70;;;;;;;10.75;100.00;99794.73;105684;1253;72853;-78
2023/10/16 01:04:13;;;;;;;17.80;8.80;;;;;;;10.72;100.00;99787.44;105938;1256;60484;-76
2023/10/16 01:06:41;;;;;;;12.30;8.50;;;;;;;10.70;100.00;99790.76;105981;1253;60546;-79
2023/10/16 01:09:09;;;;;;;13.10;9.20;;;;;;;10.67;100.00;99785.73;105814;1255;73874;-76
2023/10/16 01:11:37;;;;;;;17.50;8.60;;;;;;;10.64;100.00;99778.78;105819;1257;63674;-75
2023/10/16 01:14:05;;;;;;;12.60;8.30;;;;;;;10.61;100.00;99775.31;105757;1253;74120;-79
2023/10/16 01:16:32;;;;;;;19.70;8.90;;;;;;;10.58;100.00;99769.23;105922;1257;62260;-77
2023/10/16 01:19:01;;;;;;;12.50;8.40;;;;;;;10.55;100.00;99765.83;105811;1253;60483;-77
2023/10/16 01:21:31;;;;;;;13.80;9.00;;;;;;;10.52;100.00;99762.33;105749;1254;73822;-76
2023/10/16 01:24:16;;;;;;;14.80;7.80;;;;;;;10.50;100.00;99756.57;105884;1256;62618;-77
2023/10/16 01:26:43;;;;;;;14.30;8.70;;;;;;;10.48;100.00;99757.77;105799;1253;72735;-75
2023/10/16 01:29:10;;;;;;;15.60;8.70;;;;;;;10.46;100.00;99755.95;105778;1256;61835;-75
2023/10/16 01:31:40;;;;;;;16.00;8.40;;;;;;;10.45;100.00;99753.59;105777;1255;60509;-75
2023/10/16 01:34:12;;;;;;;13.40;9.00;;;;;;;10.44;100.00;99754.77;105782;1254;73813;-75
2023/10/16 01:36:46;;;;;;;15.80;8.70;;;;;;;10.42;100.00;99753.50;105884;1255;62783;-75
2023/10/16 01:42:03;;;;;;;14.80;9.20;;;;;;;10.37;100.00;99744.90;105892;1255;61773;-75
2023/10/16 01:44:30;;;;;;;15.20;9.40;;;;;;;10.35;100.00;99738.57;105835;1253;60664;-77
2023/10/16 01:47:03;;;;;;;17.40;10.90;;;;;;;10.35;100.00;99738.91;105671;1253;72388;-75
2023/10/16 01:49:29;;;;;;;15.90;10.80;;;;;;;10.36;100.00;99740.95;105707;1255;63852;-75
2023/10/16 01:51:56;;;;;;;18.10;11.60;;;;;;;10.37;100.00;99741.03;105741;1253;72663;-77
2023/10/16 01:54:24;;;;;;;19.50;12.10;;;;;;;10.39;100.00;99740.60;105843;1255;61969;-77
2023/10/16 01:56:51;;;;;;;19.20;12.10;;;;;;;10.39;100.00;99738.29;105759;1253;60470;-76
2023/10/16 01:59:21;;;;;;;14.80;10.00;;;;;;;10.41;100.00;99735.42;105792;1253;73833;-76
2023/10/16 02:01:49;;;;;;;12.80;9.90;;;;;;;10.39;100.00;99730.27;105782;1255;62415;-76
2023/10/16 02:04:19;;;;;;;12.70;8.90;;;;;;;10.38;100.00;99725.81;105765;1253;71452;-76
2023/10/16 02:06:48;;;;;;;13.40;10.70;;;;;;;10.36;100.00;99716.55;105798;1253;61900;-75
2023/10/16 02:09:22;;;;;;;14.10;10.70;;;;;;;10.34;100.00;99711.77;105872;1255;60423;-76
2023/10/16 02:11:50;;;;;;;15.10;10.90;;;;;;;10.31;100.00;99700.25;105734;1253;72362;-76
2023/10/16 02:14:17;;;;;;;19.20;10.80;;;;;;;10.28;100.00;99696.11;105974;1255;63977;-74
2023/10/16 02:16:47;;;;;;;14.50;11.00;;;;;;;10.26;100.00;99693.29;105658;1253;73249;-77
2023/10/16 02:19:16;;;;;;;16.00;13.30;;;;;;;10.22;100.00;99688.66;105742;1252;61976;-74
2023/10/16 02:21:44;;;;;;;18.70;12.60;;;;;;;10.20;100.00;99690.27;105725;1257;60768;-78
2023/10/16 02:24:12;;;;;;;16.90;12.90;;;;;;;10.19;100.00;99692.97;105789;1254;73826;-76
2023/10/16 02:26:57;;;;;;;14.90;11.90;;;;;;;10.17;100.00;99694.14;105719;1252;63801;-75
2023/10/16 02:29:31;;;;;;;19.20;13.30;;;;;;;10.15;100.00;99691.81;105705;1255;72541;-78
2023/10/16 02:31:58;;;;;;;17.10;11.90;;;;;;;10.12;100.00;99685.73;105918;1255;61801;-76
2023/10/16 02:34:26;;;;;;;18.50;12.10;;;;;;;10.09;100.00;99677.55;105683;1252;60643;-78
2023/10/16 02:36:56;;;;;;;20.30;13.90;;;;;;;10.08;100.00;99675.17;105692;1253;73778;-75
2023/10/16 02:39:35;;;;;;;16.30;13.50;;;;;;;10.09;100.00;99678.29;105837;1257;64006;-76
2023/10/16 02:42:07;;;;;;;15.80;14.00;;;;;;;10.08;100.00;99678.33;105944;1253;72776;-75
2023/10/16 02:44:45;;;;;;;18.20;13.00;;;;;;;10.09;100.00;99676.75;105874;1256;61883;-75
2023/10/16 02:47:13;;;;;;;18.00;13.60;;;;;;;10.08;100.00;99678.71;105785;1253;60466;-74
2023/10/16 02:49:50;;;;;;;21.40;14.00;;;;;;;10.09;100.00;99685.29;105737;1256;73896;-78
2023/10/16 02:52:17;;;;;;;22.40;15.60;;;;;;;10.10;100.00;99678.06;105831;1256;63933;-77
2023/10/16 02:54:46;;;;;;;15.60;12.60;;;;;;;10.09;100.00;99677.39;105448;1253;391382;-78
2023/10/16 02:58:04;;;;;;;20.20;14.80;;;;;;;10.09;100.00;99666.42;102618;1294;601445;-76
2023/10/16 03:00:38;;;;;;;22.90;16.50;;;;;;;10.05;100.00;99664.27;104753;1266;60503;-75
2023/10/16 03:03:07;;;;;;;24.30;14.80;;;;;;;10.06;100.00;99663.46;104831;1266;60122;-76
2023/10/16 03:05:35;;;;;;;23.10;16.00;;;;;;;10.08;100.00;99655.84;104959;1267;72410;-76
2023/10/16 03:08:03;;;;;;;25.80;16.20;;;;;;;10.09;100.00;99652.92;104851;1270;63741;-75
2023/10/16 03:10:30;;;;;;;21.70;16.10;;;;;;;10.12;100.00;99648.73;104695;1266;252183;-75
2023/10/16 03:13:05;;;;;;;23.00;15.60;;;;;;;10.13;100.00;99645.30;104924;1263;60663;-78
2023/10/16 03:15:46;;;;;;;20.00;15.90;;;;;;;10.16;100.00;99637.42;105055;1268;59359;-76
2023/10/16 03:18:17;;;;;;;21.30;16.00;;;;;;;10.20;100.00;99629.10;105392;1256;71570;-75
2023/10/16 03:20:46;;;;;;;24.00;15.50;;;;;;;10.24;100.00;99626.17;105354;1262;62307;-77
2023/10/16 03:23:14;;;;;;;25.00;16.10;;;;;;;10.29;100.00;99619.50;105442;1260;71611;-77
2023/10/16 03:28:11;;;;;;;18.00;14.70;;;;;;;10.39;100.00;99613.05;105491;1261;59636;-76
2023/10/16 03:30:39;;;;;;;22.50;16.10;;;;;;;10.43;100.00;99609.27;105446;1261;75407;-75
2023/10/16 03:33:08;;;;;;;25.00;17.80;;;;;;;10.47;100.00;99607.38;105546;1255;62493;-76
2023/10/16 03:35:38;;;;;;;22.90;16.40;;;;;;;10.53;100.00;99608.15;105513;1262;71468;-76
2023/10/16 03:38:10;;;;;;;18.20;16.30;;;;;;;10.59;100.00;99605.20;105354;1261;61672;-75
2023/10/16 03:40:41;;;;;;;20.80;15.90;;;;;;;10.66;100.00;99600.35;105330;1256;60112;-78
2023/10/16 03:43:09;;;;;;;18.80;15.30;;;;;;;10.72;100.00;99592.18;105452;1256;71772;-77
2023/10/16 03:45:40;;;;;;;18.00;15.70;;;;;;;10.77;100.00;99584.95;105492;1255;62337;-76
2023/10/16 03:48:10;;;;;;;17.70;14.60;;;;;;;10.83;100.00;99581.36;105799;1252;71510;-75
2023/10/16 03:50:39;;;;;;;18.40;15.20;;;;;;;10.89;100.00;99578.25;105723;1256;62298;-74
2023/10/16 03:53:07;;;;;;;15.90;14.30;;;;;;;10.95;100.00;99576.73;105774;1252;60068;-74
2023/10/16 03:55:47;;;;;;;18.10;14.50;;;;;;;11.01;100.00;99569.29;105699;1254;71870;-75
2023/10/16 03:58:16;;;;;;;18.80;15.50;;;;;;;11.07;100.00;99564.63;105832;1258;64408;-77
2023/10/16 04:00:53;;;;;;;22.20;16.60;;;;;;;11.12;100.00;99556.86;105872;1254;71902;-76
2023/10/16 04:03:21;;;;;;;19.40;14.40;;;;;;;11.20;100.00;99547.67;105766;1258;60383;-76
2023/10/16 04:05:50;;;;;;;14.70;13.00;;;;;;;11.27;100.00;99547.84;105716;1258;59559;-79
2023/10/16 04:08:18;;;;;;;20.80;12.80;;;;;;;11.32;100.00;99544.91;105690;1258;73189;-77
2023/10/16 04:10:46;;;;;;;14.80;12.30;;;;;;;11.38;100.00;99542.69;105758;1252;62762;-78
2023/10/16 04:13:14;;;;;;;13.50;11.80;;;;;;;11.45;100.00;99536.74;105634;1254;71457;-77
2023/10/16 04:53:07;;;;;;;12.50;11.10;;;;;;;12.27;100.00;99520.92;105720;1253;71403;-80
2023/10/16 05:07:06;;;;;;;11.90;9.30;;;;;;;12.77;100.00;99504.14;105743;1258;75344;-75
2023/10/16 06:15:37;;;;;;;29.60;22.70;;;;;;;13.73;100.00;99542.04;105692;1256;72619;-78
2023/10/16 06:18:06;;;;;;;35.10;26.30;;;;;;;13.66;100.00;99536.32;105785;1253;62804;-77
2023/10/16 06:20:37;;;;;;;31.20;24.00;;;;;;;13.60;100.00;99527.89;105773;1253;59561;-79
2023/10/16 06:23:09;;;;;;;29.70;22.50;;;;;;;13.56;100.00;99529.36;105531;1259;75082;-77
2023/10/16 06:25:37;;;;;;;28.20;19.50;;;;;;;13.53;100.00;99543.11;105728;1253;63601;-79
2023/10/16 06:28:11;;;;;;;23.10;20.20;;;;;;;13.49;100.00;99538.70;105774;1257;72764;-77
2023/10/16 06:30:38;;;;;;;23.90;19.70;;;;;;;13.45;100.00;99546.98;105632;1256;62557;-79
2023/10/16 06:33:06;;;;;;;32.20;20.20;;;;;;;13.40;100.00;99540.08;105753;1254;60229;-77
2023/10/16 06:35:33;;;;;;;18.60;15.40;;;;;;;13.34;100.00;99547.24;105665;1259;74983;-77
2023/10/16 06:38:01;;;;;;;17.50;13.60;;;;;;;13.27;100.00;99546.97;105746;1258;63661;-76
2023/10/16 06:40:32;;;;;;;10.80;9.10;;;;;;;13.20;100.00;99556.36;105776;1257;72073;-77
2023/10/16 06:43:25;;;;;;;5.20;4.70;;;;;;;13.12;100.00;99559.53;105752;1254;60459;-77
2023/10/16 06:46:32;;;;;;;2.20;1.40;;;;;;;12.97;100.00;99553.11;102857;1285;600609;-79
2023/10/16 06:49:09;;;;;;;3.50;1.60;;;;;;;12.74;100.00;99550.73;104763;1271;62138;-76
2023/10/16 06:51:36;;;;;;;2.40;0.80;;;;;;;12.58;100.00;99549.66;105352;1259;60361;-76
2023/10/16 06:54:05;;;;;;;0.80;0.80;;;;;;;12.42;100.00;99556.56;105270;1261;72959;-76
2023/10/16 06:56:34;;;;;;;4.80;0.50;;;;;;;12.27;100.00;99558.70;105323;1263;63780;-79
2023/10/16 06:59:01;;;;;;;0.50;0.40;;;;;;;12.12;100.00;99562.05;105048;1259;272654;-76
2023/10/16 07:01:29;;;;;;;2.10;0.70;;;;;;;11.96;100.00;99566.05;105449;1261;62005;-76
2023/10/16 07:03:55;;;;;;;1.00;0.30;;;;;;;11.82;100.00;99565.22;105489;1256;61477;-75
2023/10/16 07:06:32;;;;;;;0.10;0.10;;;;;;;11.70;100.00;99572.15;105602;1257;72718;-76
2023/10/16 07:09:00;;;;;;;0.90;0.40;;;;;;;11.60;100.00;99570.19;105509;1262;63724;-79
2023/10/16 07:11:27;;;;;;;0.40;0.20;;;;;;;11.47;100.00;99565.15;105440;1256;72796;-78
2023/10/16 07:13:54;;;;;;;0.30;0.20;;;;;;;11.33;100.00;99563.42;105396;1262;61975;-78
2023/10/16 07:16:22;;;;;;;0.30;0.10;;;;;;;11.21;100.00;99566.46;105427;1256;59676;-79
2023/10/16 07:18:54;;;;;;;1.10;0.50;;;;;;;11.09;100.00;99563.59;105425;1260;74929;-76
2023/10/16 07:21:21;;;;;;;0.40;0.30;;;;;;;10.96;100.00;99555.84;105458;1257;62610;-77
2023/10/16 07:23:48;;;;;;;2.00;0.70;;;;;;;10.87;100.00;99559.38;105284;1257;73917;-77
2023/10/16 07:26:18;;;;;;;2.80;0.60;;;;;;;10.79;100.00;99567.18;105306;1262;61036;-78
2023/10/16 07:28:48;;;;;;;0.80;0.20;;;;;;;10.73;100.00;99570.23;105446;1256;60109;-77
2023/10/16 07:31:16;;;;;;;0.30;0.20;;;;;;;10.68;100.00;99573.23;105447;1256;71887;-77
2023/10/16 07:33:45;;;;;;;0.20;0.20;;;;;;;10.61;100.00;99587.05;105421;1260;65313;-77
2023/10/16 07:36:12;;;;;;;1.20;0.20;;;;;;;10.51;100.00;99594.13;105386;1257;71571;-78
2023/10/16 07:38:40;;;;;;;0.10;0.10;;;;;;;10.41;100.00;99601.00;105465;1261;62199;-76
2023/10/16 07:41:11;;;;;;;2.10;0.20;;;;;;;10.31;100.00;99603.28;105348;1262;59695;-77
2023/10/16 07:43:38;;;;;;;1.00;0.20;;;;;;;10.21;100.00;99608.41;105461;1256;71801;-76
2023/10/16 07:51:48;;;;;;;0.90;0.40;;;;;;;9.75;100.00;99648.59;92198;1262;1003192;-77
2023/10/16 07:54:15;;;;;;;0.60;0.30;;;;;;;9.65;100.00;99654.94;105209;1262;59809;-77
2023/10/16 07:56:42;;;;;;;1.30;0.20;;;;;;;9.54;100.00;99660.42;105162;1267;72794;-74
2023/10/16 07:59:09;;;;;;;3.10;0.20;;;;;;;9.45;100.00;99667.85;105131;1267;63990;-77
2023/10/16 08:01:46;;;;;;;0.30;0.30;;;;;;;9.37;100.00;99660.42;104958;1264;72696;-77
2023/10/16 08:06:55;;;;;;;3.30;1.80;;;;;;;9.18;100.00;99676.22;105051;1263;60399;-75
2023/10/16 08:11:59;;;;;;;0.50;0.20;;;;;;;9.00;100.00;99690.34;105100;1266;63744;-76
2023/10/16 08:14:32;;;;;;;1.60;0.40;;;;;;;8.92;100.00;99684.05;105010;1263;72540;-76
2023/10/16 08:17:46;;;;;;;1.00;0.30;;;;;;;8.86;100.00;99679.30;104965;1264;60054;-77
2023/10/16 08:19:49;;;;;;;3.80;0.20;;;;;;;8.78;100.00;99690.11;104945;1264;60276;-77
2023/10/16 08:22:16;;;;;;;0.20;0.20;;;;;;;8.71;100.00;99693.55;105036;1266;72143;-78
2023/10/16 08:24:57;;;;;;;1.10;0.30;;;;;;;8.62;100.00;99702.45;105120;1267;63957;-79
2023/10/16 08:33:06;;;;;;;0.50;0.40;;;;;;;8.40;100.00;99699.02;105047;1264;60201;-81
2023/10/16 08:35:38;;;;;;;0.60;0.10;;;;;;;8.36;100.00;99717.79;105010;1263;73178;-76
2023/10/16 08:38:17;;;;;;;0.60;0.40;;;;;;;8.29;100.00;99732.09;104998;1263;62762;-77
2023/10/16 08:40:45;;;;;;;5.50;1.00;;;;;;;8.26;100.00;99728.10;105075;1263;71502;-77
2023/10/16 08:43:17;;;;;;;3.10;0.90;;;;;;;8.25;100.00;99732.22;105027;1263;60626;-80
2023/10/16 08:45:48;;;;;;;1.60;0.40;;;;;;;8.25;100.00;99736.08;104978;1262;61619;-76
2023/10/16 08:48:19;;;;;;;3.90;0.60;;;;;;;8.23;100.00;99743.67;104994;1264;73131;-77
2023/10/16 08:50:52;;;;;;;1.80;0.20;;;;;;;8.21;100.00;99744.66;105010;1266;64223;-79
2023/10/16 08:53:32;;;;;;;;;;;;;;;8.20;100.00;99733.40;105059;1267;72685;-80
2023/10/16 08:56:07;;;;;;;2.30;0.40;;;;;;;8.19;100.00;99724.63;105159;1262;60087;-78
2023/10/16 08:58:39;;;;;;;1.00;0.30;;;;;;;8.15;100.00;99727.64;105015;1262;61349;-77
2023/10/16 09:01:07;;;;;;;2.20;0.50;;;;;;;8.13;100.00;99728.09;105062;1262;73082;-78
2023/10/16 09:03:56;;;;;;;2.40;0.30;;;;;;;8.11;100.00;99725.30;105036;1263;64103;-77
2023/10/16 09:06:24;;;;;;;0.30;0.30;;;;;;;8.05;100.00;99721.45;104980;1267;72713;-76
2023/10/16 09:08:52;;;;;;;1.10;0.20;;;;;;;8.02;100.00;99712.79;105028;1263;61039;-76
2023/10/16 09:11:19;;;;;;;1.00;0.20;;;;;;;8.00;100.00;99715.20;105032;1267;60386;-77
2023/10/16 09:13:53;;;;;;;0.90;0.30;;;;;;;8.00;100.00;99729.14;105240;1262;73050;-77
2023/10/16 09:16:21;;;;;;;2.70;0.30;;;;;;;7.99;100.00;99734.59;105100;1267;63603;-76
2023/10/16 09:18:47;;;;;;;0.90;0.20;;;;;;;7.97;100.00;99725.64;104900;1265;72785;-80
2023/10/16 09:21:22;;;;;;;2.90;0.40;;;;;;;7.95;100.00;99721.96;105073;1263;60255;-78
2023/10/16 09:23:53;;;;;;;0.70;0.30;;;;;;;7.90;100.00;99721.55;104971;1263;60279;-76
2023/10/16 09:26:23;;;;;;;0.20;0.20;;;;;;;7.87;100.00;99729.09;105201;1262;73106;-74
2023/10/16 09:28:53;;;;;;;0.60;0.20;;;;;;;7.84;100.00;99728.02;104935;1262;61852;-75
2023/10/16 09:31:21;;;;;;;0.30;0.20;;;;;;;7.81;100.00;99728.73;105158;1262;72734;-78
2023/10/16 09:33:50;;;;;;;2.30;0.70;;;;;;;7.76;100.00;99736.54;105100;1267;61492;-78
2023/10/16 09:36:18;;;;;;;2.10;1.40;;;;;;;7.69;100.00;99750.21;105040;1264;60165;-76
2023/10/16 09:38:51;;;;;;;0.30;0.20;;;;;;;7.63;100.00;99757.67;104999;1262;73270;-78
2023/10/16 09:44:22;;;;;;;1.20;0.30;;;;;;;7.52;100.00;99784.31;104977;1262;72680;-78
2023/10/16 09:46:53;;;;;;;1.20;0.20;;;;;;;7.44;100.00;99780.44;105059;1262;60349;-77
2023/10/16 09:49:22;;;;;;;0.60;0.20;;;;;;;7.42;100.00;99775.48;104989;1263;59635;-76
2023/10/16 09:51:50;;;;;;;0.60;0.30;;;;;;;7.41;100.00;99770.01;105032;1267;73156;-76
2023/10/16 09:54:33;;;;;;;0.90;0.40;;;;;;;7.41;100.00;99774.84;104930;1266;63914;-79
2023/10/16 09:57:01;;;;;;;1.80;0.30;;;;;;;7.41;100.00;99772.42;105028;1267;71909;-78
2023/10/16 09:59:38;;;;;;;0.40;0.30;;;;;;;7.44;100.00;99772.41;105105;1266;61126;-75
2023/10/16 10:02:08;;;;;;;4.90;0.40;;;;;;;7.47;100.00;99777.99;105029;1263;59663;-77
2023/10/16 10:04:39;;;;;;;1.30;0.50;;;;;;;7.48;100.00;99774.25;104979;1264;74260;-76
2023/10/16 10:07:11;;;;;;;0.90;0.70;;;;;;;7.50;100.00;99772.45;105003;1263;63969;-75
2023/10/16 10:09:41;;;;;;;0.30;0.30;;;;;;;7.46;100.00;99772.46;104991;1263;71278;-76
2023/10/16 10:12:43;;;;;;;1.40;0.60;;;;;;;7.45;100.00;99767.48;105017;1263;60260;-76
2023/10/16 10:15:26;;;;;;;0.90;0.40;;;;;;;7.46;100.00;99781.35;105094;1263;59928;-76
2023/10/16 10:17:55;;;;;;;1.80;0.60;;;;;;;7.44;100.00;99789.95;105171;1263;74073;-77
2023/10/16 10:20:24;;;;;;;0.60;0.30;;;;;;;7.44;100.00;99788.92;104981;1262;63975;-77
2023/10/16 10:22:58;;;;;;;0.30;0.30;;;;;;;7.43;100.00;99791.58;105147;1266;72729;-77
2023/10/16 10:25:26;;;;;;;1.10;0.40;;;;;;;7.43;100.00;99791.08;104966;1265;61136;-76
2023/10/16 10:27:54;;;;;;;1.50;0.50;;;;;;;7.43;100.00;99789.71;105000;1266;59744;-80
2023/10/16 10:30:27;;;;;;;1.50;0.60;;;;;;;7.42;100.00;99786.27;104978;1263;73388;-76
2023/10/16 10:32:57;;;;;;;1.60;0.50;;;;;;;7.42;100.00;99783.33;104978;1267;63868;-77
2023/10/16 10:35:28;;;;;;;1.10;0.60;;;;;;;7.40;100.00;99781.35;105225;1262;73590;-77
2023/10/16 10:38:17;;;;;;;2.70;1.70;;;;;;;7.38;100.00;99789.48;105161;1267;61339;-76
2023/10/16 10:41:06;;;;;;;0.30;0.20;;;;;;;7.37;100.00;99795.13;105135;1267;60532;-78
2023/10/16 10:43:46;;;;;;;0.50;0.40;;;;;;;7.27;100.00;99804.38;105158;1262;73018;-76
2023/10/16 10:46:20;;;;;;;1.30;0.20;;;;;;;7.14;100.00;99814.18;105122;1266;63976;-78
2023/10/16 10:48:47;;;;;;;0.40;0.10;;;;;;;7.05;100.00;99821.36;105221;1267;72546;-78
2023/10/16 10:51:14;;;;;;;0.60;0.20;;;;;;;6.94;100.00;99836.71;105007;1262;59671;-77
2023/10/16 10:53:55;;;;;;;0.20;0.20;;;;;;;6.86;100.00;99834.08;105040;1262;60390;-75
2023/10/16 10:56:22;;;;;;;1.60;0.70;;;;;;;6.83;100.00;99837.89;105126;1262;73317;-76
2023/10/16 10:58:49;;;;;;;1.80;0.30;;;;;;;6.80;100.00;99841.88;105139;1262;63652;-76
2023/10/16 11:01:16;;;;;;;2.00;0.40;;;;;;;6.78;100.00;99848.96;105151;1267;72695;-76
2023/10/16 11:03:48;;;;;;;1.80;0.50;;;;;;;6.76;100.00;99839.33;105169;1266;61215;-76
2023/10/16 11:06:17;;;;;;;0.50;0.50;;;;;;;6.75;100.00;99847.53;105198;1263;60921;-79
2023/10/16 11:08:50;;;;;;;0.50;0.40;;;;;;;6.76;100.00;99857.40;105061;1263;73955;-77
2023/10/16 11:11:17;;;;;;;0.60;0.50;;;;;;;6.77;100.00;99873.31;105195;1267;64305;-78
2023/10/16 11:13:47;;;;;;;2.20;0.30;;;;;;;6.76;100.00;99886.59;105117;1263;72688;-77
2023/10/16 11:16:15;;;;;;;0.60;0.40;;;;;;;6.74;100.00;99887.73;105159;1267;61192;-76
2023/10/16 11:18:58;;;;;;;0.50;0.30;;;;;;;6.72;100.00;99891.50;105027;1262;60355;-78
2023/10/16 11:21:27;;;;;;;1.60;0.50;;;;;;;6.67;100.00;99896.79;104948;1262;73883;-76
2023/10/16 11:23:55;;;;;;;0.30;0.30;;;;;;;6.63;100.00;99894.92;105027;1266;63008;-76
2023/10/16 11:26:26;;;;;;;0.30;0.30;;;;;;;6.62;100.00;99888.39;104987;1267;71208;-76
2023/10/16 11:28:54;;;;;;;0.50;0.40;;;;;;;6.61;100.00;99890.19;105016;1267;61032;-76
2023/10/16 11:31:21;;;;;;;0.80;0.40;;;;;;;6.58;100.00;99889.84;105017;1265;61389;-77
2023/10/16 11:34:02;;;;;;;1.60;0.20;;;;;;;6.55;100.00;99884.83;104943;1267;72823;-75
2023/10/16 11:36:31;;;;;;;0.90;0.80;;;;;;;6.52;100.00;99890.73;105090;1267;63834;-74
2023/10/16 11:39:07;;;;;;;1.40;0.50;;;;;;;6.51;100.00;99885.17;105155;1262;72710;-75
2023/10/16 11:41:36;;;;;;;3.40;2.20;;;;;;;6.53;100.00;99893.26;105005;1265;61109;-77
2023/10/16 11:44:38;;;;;;;1.50;1.10;;;;;;;6.55;100.00;99902.14;104978;1262;60425;-75
2023/10/16 11:47:00;;;;;;;2.00;1.60;;;;;;;6.57;100.00;99898.41;105032;1263;73783;-76
2023/10/16 11:49:35;;;;;;;2.60;1.70;;;;;;;6.59;100.00;99898.96;104890;1265;63967;-76
2023/10/16 11:52:19;;;;;;;4.00;3.00;;;;;;;6.60;100.00;99895.27;104969;1262;72604;-77
2023/10/16 11:54:48;;;;;;;1.40;1.10;;;;;;;6.61;100.00;99892.59;105236;1262;60561;-77
2023/10/16 11:57:16;;;;;;;0.50;0.50;;;;;;;6.61;100.00;99897.98;105202;1262;61746;-74
2023/10/16 11:59:44;;;;;;;3.20;0.60;;;;;;;6.65;100.00;99911.14;105044;1262;73891;-78
2023/10/16 12:02:16;;;;;;;0.80;0.50;;;;;;;6.71;100.00;99925.25;105008;1266;63916;-77
2023/10/16 12:04:44;;;;;;;1.00;0.70;;;;;;;6.73;100.00;99925.11;105054;1262;72795;-75
2023/10/16 12:07:14;;;;;;;2.90;1.20;;;;;;;6.75;100.00;99927.80;105108;1262;61521;-75
2023/10/16 12:09:53;;;;;;;1.40;1.00;;;;;;;6.80;100.00;99937.43;105093;1263;60555;-75
2023/10/16 12:12:21;;;;;;;0.70;0.70;;;;;;;6.85;100.00;99939.07;105139;1264;75068;-75
2023/10/16 12:14:49;;;;;;;1.20;0.30;;;;;;;6.87;100.00;99937.91;105201;1267;64844;-80
2023/10/16 12:17:20;;;;;;;3.30;2.00;;;;;;;6.87;100.00;99944.34;105006;1263;72427;-76
2023/10/16 12:19:47;;;;;;;0.40;0.40;;;;;;;6.93;100.00;99945.43;105017;1267;61426;-78
2023/10/16 12:22:20;;;;;;;0.80;0.50;;;;;;;6.97;100.00;99942.56;105051;1262;60492;-76
2023/10/16 12:24:49;;;;;;;0.60;0.20;;;;;;;6.96;100.00;99947.48;105025;1262;73856;-76
2023/10/16 12:27:17;;;;;;;0.40;0.30;;;;;;;6.96;100.00;99951.64;105021;1266;63986;-75
2023/10/16 12:29:44;;;;;;;0.60;0.60;;;;;;;6.99;100.00;99956.87;105050;1267;72165;-75
2023/10/16 12:32:12;;;;;;;1.10;0.70;;;;;;;7.03;100.00;99957.19;104946;1263;60563;-77
2023/10/16 12:34:40;;;;;;;0.70;0.70;;;;;;;7.08;100.00;99965.75;104974;1262;60566;-75
2023/10/16 12:37:07;;;;;;;1.30;0.80;;;;;;;7.11;100.00;99966.65;105111;1265;73914;-76
2023/10/16 12:39:54;;;;;;;0.80;0.80;;;;;;;7.12;100.00;99968.00;105016;1267;62858;-76
2023/10/16 12:42:21;;;;;;;0.80;0.70;;;;;;;7.13;100.00;99973.69;105067;1263;72063;-77
2023/10/16 12:44:48;;;;;;;0.40;0.40;;;;;;;7.12;100.00;99976.86;105196;1266;61451;-75
2023/10/16 12:47:15;;;;;;;2.70;1.60;;;;;;;7.13;100.00;99981.67;105245;1267;60464;-74
2023/10/16 12:50:04;;;;;;;2.00;1.00;;;;;;;7.16;100.00;99984.25;105096;1262;72886;-74
2023/10/16 12:52:32;;;;;;;2.90;1.50;;;;;;;7.18;100.00;99987.45;105394;1267;61799;-75
2023/10/16 12:55:01;;;;;;;1.70;1.30;;;;;;;7.18;100.00;99996.67;105333;1263;72686;-75
2023/10/16 12:57:28;;;;;;;1.70;0.90;;;;;;;7.15;100.00;99997.17;105300;1266;61360;-75
2023/10/16 12:59:56;;;;;;;0.40;0.40;;;;;;;7.14;100.00;100000.73;105163;1263;60597;-77
2023/10/16 13:02:26;;;;;;;0.60;0.60;;;;;;;7.16;100.00;100002.68;105316;1262;73995;-77
2023/10/16 13:04:55;;;;;;;3.00;0.80;;;;;;;7.17;100.00;100010.65;105106;1266;62896;-75
2023/10/16 13:07:24;;;;;;;5.20;1.20;;;;;;;7.18;100.00;100013.00;105137;1262;72618;-75
2023/10/16 13:10:26;;;;;;;1.20;1.00;;;;;;;7.20;100.00;100021.77;105092;1267;60372;-76
2023/10/16 13:12:53;;;;;;;3.20;1.50;;;;;;;7.21;100.00;100025.55;105286;1268;60476;-75
2023/10/16 13:15:29;;;;;;;1.10;0.80;;;;;;;7.23;100.00;100033.96;105117;1263;74844;-74
2023/10/16 13:17:56;;;;;;;2.10;0.70;;;;;;;7.24;100.00;100030.95;105100;1263;62620;-73
2023/10/16 13:20:28;;;;;;;2.80;1.20;;;;;;;7.23;100.00;100031.85;105139;1268;73763;-74
2023/10/16 13:22:57;;;;;;;0.80;0.80;;;;;;;7.23;100.00;100039.84;105301;1264;60566;-75
2023/10/16 13:25:25;;;;;;;3.60;1.60;;;;;;;7.25;100.00;100049.30;105125;1264;60969;-74
2023/10/16 13:27:53;;;;;;;2.20;1.20;;;;;;;7.25;100.00;100045.10;105192;1262;72724;-78
2023/10/16 13:30:22;;;;;;;1.90;1.60;;;;;;;7.25;100.00;100046.52;105086;1263;62572;-77
2023/10/16 13:33:06;;;;;;;2.00;1.20;;;;;;;7.24;100.00;100052.51;105187;1263;71308;-77
2023/10/16 13:35:37;;;;;;;1.60;0.60;;;;;;;7.22;100.00;100059.05;105216;1262;61317;-75
2023/10/16 13:38:04;;;;;;;1.00;0.70;;;;;;;7.20;100.00;100064.00;105239;1262;61431;-76
2023/10/16 13:40:32;;;;;;;0.70;0.60;;;;;;;7.20;100.00;100065.75;105161;1263;72968;-76
2023/10/16 13:43:02;;;;;;;4.80;1.60;;;;;;;7.20;100.00;100072.19;105058;1262;63896;-78
2023/10/16 13:45:30;;;;;;;0.90;0.70;;;;;;;7.20;100.00;100075.33;105151;1263;72699;-77
2023/10/16 13:47:57;;;;;;;1.70;1.00;;;;;;;7.20;100.00;100076.17;104997;1267;61206;-78
2023/10/16 13:50:24;;;;;;;2.90;0.90;;;;;;;7.20;100.00;100076.89;105045;1262;60490;-79
2023/10/16 13:52:52;;;;;;;0.70;0.60;;;;;;;7.20;100.00;100078.77;105124;1265;71844;-77
2023/10/16 13:55:30;;;;;;;2.00;0.90;;;;;;;7.17;100.00;100082.40;105035;1262;61934;-78